Tiempo atmosférico en la estación meteorológica de Benamejí, Córdoba (465 m.)

Fecha
DESCASC
Temp. máxima en grados centígrados (hora)
DESCASC
Temp. mínima en grados centígrados (hora)
DESCASC
Temp. media en grados centígrados
DESCASC
Racha de viento máxima en m/sg (hora)
DESCASC
Velocidad máxima media en intervalos de 10 minutos(hora)
DESCASC
Precipitaciones diarias en mm
DESCASC
Precipitaciones de 00:00 a 06:00 en mm
DESCASC
Precipitaciones de 06:00 a 12:00 en mm
DESCASC
Precipitaciones de 12:00 a 18:00 en mm
DESCASC
Precipitaciones de 18:00 a 24:00 en mm
DESCASC
22-10-2017 25.2 (16:40) 14.1 (08:40) 19.7 5.83 (16:40) 4.17 (20:40) 0 0 0 0 0
21-10-2017 23.3 (18:00) 13.3 (07:40) 18.3 5.83 (16:30) 3.61 (15:50) 0 0 0 0 0
20-10-2017 21 (18:10) 13.5 (05:40) 17.3 5.28 (13:20) 3.33 (13:20) 0 0 0 0 0
19-10-2017 -- (--) -- (--) -- -- (--) -- (--) -- -- 0.4 0 0
18-10-2017 18 (01:50) 13.3 (00:00) 15.7 15.28 (05:30) 7.22 (05:30) 27.2 12.8 8.4 5.4 0.6
17-10-2017 23.8 (16:40) 16.7 (00:00) 20.3 11.67 (12:30) 8.61 (12:40) 0 0 0 0 0
16-10-2017 26.7 (16:00) 17.6 (00:00) 22.2 10.83 (13:40) 7.5 (17:40) 0 0 0 0 0
15-10-2017 30.1 (14:40) 17.6 (00:00) 23.9 12.22 (13:10) 8.89 (13:00) 0 0 0 0 0
14-10-2017 31 (17:10) 18 (00:00) 24.5 6.67 (20:40) 5 (20:40) 0 0 0 0 0
13-10-2017 32.7 (15:40) 20.1 (00:00) 26.4 9.72 (13:50) 6.39 (13:50) 0 0 0 0 0
12-10-2017 31.8 (15:40) 19.8 (00:00) 25.8 10 (16:00) 7.22 (16:00) 0 0 0 0 0
11-10-2017 30.9 (16:30) 14.6 (00:00) 22.8 8.06 (23:30) 5.83 (18:20) 0 0 0 0 0
10-10-2017 30.1 (16:00) 15.7 (00:00) 22.9 7.78 (18:30) 5.83 (18:30) 0 0 0 0 0
09-10-2017 29.9 (16:00) 15.4 (00:00) 22.6 6.94 (22:10) 5.28 (22:10) 0 0 0 0 0
08-10-2017 29.3 (16:50) 17.3 (00:00) 23.3 7.22 (00:40) 5 (00:20) 0 0 0 0 0
07-10-2017 28.9 (15:00) 17.3 (00:00) 23.1 10.28 (18:00) 7.22 (18:20) 0 0 0 0 0
06-10-2017 31.4 (16:40) 15.8 (00:00) 23.6 6.39 (17:00) 3.61 (09:50) 0 0 0 0 0
05-10-2017 29.4 (15:40) 17.2 (00:00) 23.3 8.33 (16:10) 5.83 (16:20) 0 0 0 0 0
04-10-2017 27.2 (15:00) 18.7 (00:00) 23 13.33 (17:00) 10 (16:30) 0 0 0 0 0
03-10-2017 29.6 (16:30) 17.2 (00:00) 23.4 8.61 (21:40) 6.11 (21:10) 0 0 0 0 0
02-10-2017 29.1 (15:40) 17 (00:00) 23.1 10.28 (17:50) 8.06 (17:50) 0 0 0 0 0
01-10-2017 31 (15:40) 17.4 (00:00) 24.2 6.67 (21:00) 5 (20:40) 0 0 0 0 0
30-09-2017 29.7 (17:50) 16.1 (00:00) 22.9 7.78 (00:10) 5.83 (00:10) 0 0 0 0 0
29-09-2017 28.1 (17:00) 16.5 (00:00) 22.3 8.89 (17:40) 6.39 (21:20) 0 0 0 0 0
28-09-2017 27.6 (17:20) 18 (00:00) 22.8 8.06 (19:20) 6.11 (20:20) 0 0 0 0 0
27-09-2017 25.3 (17:20) 16.8 (00:00) 21 6.67 (20:20) 4.72 (21:50) 0 0 0 0 0
26-09-2017 29.8 (16:50) 15.2 (00:00) 22.5 6.67 (15:20) 4.72 (20:30) 0 0 0 0 0
25-09-2017 30.3 (17:10) 16.1 (00:00) 23.2 7.78 (17:10) 5 (17:50) 0 0 0 0 0
24-09-2017 29.6 (16:30) 16.1 (00:00) 22.9 8.33 (18:10) 5.56 (18:40) 0 0 0 0 0
23-09-2017 28.2 (15:10) 17.9 (00:00) 23.1 9.44 (17:00) 6.11 (00:10) 0 0 0 0 0

Gráficas

Temp. máximas Temp. mínimas Temp. medias Precipitaciones Rachas de viento máximas Velocidades máximas media en intervalos de 10 minutos

Datos horarios

Fecha y hora oficial Temperatura (ºC) Velocidad del viento (km/h) Dirección del viento Racha (km/h) Dirección de racha Precipitación (mm) Presión (hPa) Tendencia (hPa) Humedad (%)
2017-10-22 23:00:00 17.2 7 Sur 8 Sur 0 -- -- 69
2017-10-22 22:00:00 18.4 3 Norte 18 Sur 0 -- -- 65
2017-10-22 21:00:00 19.1 14 Sur 19 Sur 0 -- -- 64
2017-10-22 20:00:00 20.6 13 Sudoeste 19 Sudoeste 0 -- -- 60
2017-10-22 19:00:00 24.1 7 Oeste 13 Oeste 0 -- -- 53
2017-10-22 18:00:00 24.8 12 Oeste 17 Oeste 0 -- -- 50
2017-10-22 17:00:00 24.4 6 Sudoeste 21 Sur 0 -- -- 51
2017-10-22 16:00:00 24.8 4 Sudeste 12 Sudoeste 0 -- -- 53
2017-10-22 15:00:00 23.6 4 Noroeste 17 Norte 0 -- -- 56
2017-10-22 14:00:00 22.6 6 Norte 14 Norte 0 -- -- 60
2017-10-22 13:00:00 21.2 3 Nordeste 9 Nordeste 0 -- -- 69
2017-10-22 12:00:00 18.7 3 Norte 6 Norte 0 -- -- 77
2017-10-22 11:00:00 17.4 3 Sudoeste 6 Sur 0 -- -- 86
2017-10-22 10:00:00 15.4 0 Calma 5 Este 0 -- -- 94
2017-10-22 09:00:00 14.2 4 Este 7 Este 0 -- -- 94
2017-10-22 08:00:00 14.3 5 Nordeste 6 Nordeste 0 -- -- 93
2017-10-22 07:00:00 14.6 0 Calma 7 Sudeste 0 -- -- 92
2017-10-22 06:00:00 14.9 7 Sudeste 9 Sudeste 0 -- -- 91
2017-10-22 05:00:00 15.4 3 Sudeste 6 Este 0 -- -- 89
2017-10-22 04:00:00 15.7 2 Nordeste 7 Sudoeste 0 -- -- 89
2017-10-22 03:00:00 16 5 Sudoeste 8 Oeste 0 -- -- 87
2017-10-22 02:00:00 16.8 5 Este 8 Este 0 -- -- 85
2017-10-22 01:00:00 17.6 3 Sudoeste 6 Sur 0 -- -- 80
2017-10-22 00:00:00 18.8 2 Norte 5 Este 0 -- -- 75
2017-10-21 23:00:00 19.2 3 Este 5 Este 0 -- -- 74
2017-10-21 22:00:00 19.3 3 Noroeste 9 Noroeste 0 -- -- 75
2017-10-21 21:00:00 19.7 4 Noroeste 12 Noroeste 0 -- -- 74
2017-10-21 20:00:00 20.4 6 Noroeste 13 Oeste 0 -- -- 72
2017-10-21 19:00:00 22.1 9 Noroeste 20 Noroeste 0 -- -- 64
2017-10-21 18:00:00 23.3 10 Noroeste 21 Noroeste 0 -- -- 59
2017-10-21 17:00:00 22.9 10 Noroeste 21 Noroeste 0 -- -- 65
2017-10-21 16:00:00 22.5 11 Noroeste 19 Noroeste 0 -- -- 69
2017-10-21 15:00:00 22.7 7 Oeste 16 Noroeste 0 -- -- 64
2017-10-21 14:00:00 21.6 5 Noroeste 14 Noroeste 0 -- -- 67
2017-10-21 13:00:00 20.6 5 Norte 9 Norte 0 -- -- 68
2017-10-21 12:00:00 18.1 5 Norte 9 Nordeste 0 -- -- 75
2017-10-21 11:00:00 15.3 3 Este 9 Nordeste 0 -- -- 86
2017-10-21 10:00:00 14.2 5 Nordeste 13 Nordeste 0 -- -- 90
2017-10-21 09:00:00 14 6 Este 12 Nordeste 0 -- -- 88
2017-10-21 08:00:00 13.3 3 Este 11 Nordeste 0 -- -- 92
2017-10-21 07:00:00 13.6 4 Este 8 Nordeste 0 -- -- 91
2017-10-21 06:00:00 13.8 6 Este 13 Nordeste 0 -- -- 90
2017-10-21 05:00:00 13.7 9 Nordeste 12 Nordeste 0 -- -- 91
2017-10-21 04:00:00 14.1 8 Este 9 Este 0 -- -- 90
2017-10-21 03:00:00 14.6 6 Este 9 Este 0 -- -- 86
2017-10-21 02:00:00 15.1 2 Nordeste 6 Este 0 -- -- 85
2017-10-21 01:00:00 15.7 4 Este 9 Este 0 -- -- 83
2017-10-21 00:00:00 16.2 2 Nordeste 6 Este 0 -- -- 84
2017-10-20 23:00:00 16.9 0 Calma 4 Norte 0 -- -- 81
2017-10-20 22:00:00 17.3 2 Sur 5 Noroeste 0 -- -- 80
2017-10-20 21:00:00 17.9 5 Noroeste 12 Noroeste 0 -- -- 78
2017-10-20 20:00:00 18.8 7 Noroeste 10 Noroeste 0 -- -- 74
2017-10-20 19:00:00 20.8 6 Noroeste 14 Noroeste 0 -- -- 69
2017-10-20 18:00:00 20.9 9 Noroeste 16 Noroeste 0 -- -- 67
2017-10-20 17:00:00 20.4 11 Norte 18 Noroeste 0 -- -- 68
2017-10-20 16:00:00 19.8 7 Noroeste 18 Norte 0 -- -- 70
2017-10-20 15:00:00 19.5 9 Noroeste 17 Noroeste 0 -- -- 71
2017-10-20 14:00:00 18.4 8 Noroeste 19 Norte 0 -- -- 72
2017-10-20 13:00:00 18.1 11 Norte 18 Norte 0 -- -- 75
2017-10-20 12:00:00 16.9 3 Sudoeste 8 Sur 0 -- -- 81
2017-10-20 11:00:00 16.4 4 Sudeste 10 Sudeste 0 -- -- 82
2017-10-20 10:00:00 15.3 3 Nordeste 5 Nordeste 0 -- -- 92
2017-10-20 09:00:00 14.3 0 Calma 7 Nordeste 0 -- -- 95
2017-10-20 08:00:00 14 5 Nordeste 8 Este 0 -- -- 95
2017-10-20 07:00:00 13.9 6 Este 10 Este 0 -- -- 94
2017-10-20 06:00:00 13.7 4 Nordeste 6 Este 0 -- -- 94
2017-10-20 05:00:00 13.9 3 Oeste 6 Sur 0 -- -- 93
2017-10-20 04:00:00 13.9 3 Sur 5 Sur 0 -- -- 92
2017-10-20 03:00:00 14 2 Sudoeste 5 Este 0 -- -- 91
2017-10-20 02:00:00 14.3 0 Calma 5 Sur 0 -- -- 90
2017-10-20 01:00:00 14.3 2 Sur 6 Nordeste 0 -- -- 90
2017-10-20 00:00:00 14.7 3 Norte 8 Oeste 0 -- -- 89
2017-10-19 23:00:00 14.8 4 Noroeste 8 Nordeste 0 -- -- 88
2017-10-19 22:00:00 14.9 0 Calma 9 Sudoeste 0 -- -- 87
2017-10-19 21:00:00 15 7 Sudoeste 13 Noroeste 0 -- -- 86
2017-10-19 20:00:00 15.8 10 Noroeste 21 Oeste 0 -- -- 81
2017-10-19 19:00:00 16.9 13 Oeste 28 Oeste 0 -- -- 76
2017-10-19 18:00:00 17.3 22 Oeste 33 Oeste 0 -- -- 73
2017-10-19 17:00:00 17.3 15 Oeste 26 Noroeste 0 -- -- 73
2017-10-19 16:00:00 17.1 15 Oeste 27 Oeste 0 -- -- 76
2017-10-19 15:00:00 15.5 15 Oeste 28 Oeste 0 -- -- 86
2017-10-19 14:00:00 14.8 13 Noroeste 22 Noroeste 0 -- -- 88
2017-10-19 13:00:00 14.7 5 Noroeste 10 Oeste 0 -- -- 97
2017-10-19 12:00:00 13.9 2 Noroeste 6 Oeste 0 -- -- 97
2017-10-19 11:00:00 13.7 4 Oeste 6 Oeste 0 -- -- 97
2017-10-19 10:00:00 13.4 0 Calma 5 Noroeste 0 -- -- 97
2017-10-19 09:00:00 13.2 0 Calma 3 Oeste 0.2 -- -- 97
2017-10-19 08:00:00 13.1 3 Sudoeste 7 Sur 0 -- -- 97
2017-10-19 07:00:00 13.3 4 Sur 13 Sudeste 0.2 -- -- 97
2017-10-19 06:00:00 -- -- -- -- -- -- -- -- --
2017-10-19 05:00:00 13.4 7 Sur 13 Sur 0.2 -- -- 97
2017-10-19 04:00:00 13.6 5 Sudoeste 22 Sur 1 -- -- 97
2017-10-19 03:00:00 13.6 18 Sur 24 Sur 2.6 -- -- 97
2017-10-19 02:00:00 13.9 12 Sur 26 Sur 0.8 -- -- 96
2017-10-19 01:00:00 14.1 19 Sur 27 Sur 1 -- -- 96
2017-10-19 00:00:00 14.2 14 Sudoeste 22 Sudoeste 0.2 -- -- 95
2017-10-18 23:00:00 14.3 11 Sudoeste 31 Sudoeste 0.2 -- -- 94
2017-10-18 22:00:00 14.2 16 Sudoeste 35 Sudoeste 0 -- -- 95
2017-10-18 21:00:00 14.3 15 Sur 21 Sudoeste 0 -- -- 95
2017-10-18 20:00:00 14.4 16 Sudoeste 27 Sudoeste 0 -- -- 95
2017-10-18 19:00:00 14.7 15 Sudoeste 27 Sudoeste 0.2 -- -- 95
2017-10-18 18:00:00 14.9 15 Sudoeste 25 Oeste 0.2 -- -- 95
2017-10-18 17:00:00 14.9 13 Sudoeste 19 Noroeste 1.2 -- -- 95
2017-10-18 16:00:00 15.2 11 Sudoeste 20 Sudoeste 0 -- -- 93
2017-10-18 15:00:00 14.7 8 Oeste 26 Oeste 2 -- -- 95
2017-10-18 14:00:00 15.3 13 Oeste 21 Sudoeste 0 -- -- 93
2017-10-18 13:00:00 14.5 12 Sudoeste 25 Sudoeste 2 -- -- 96
2017-10-18 12:00:00 14.5 12 Sudoeste 19 Sudoeste 2.8 -- -- 95
2017-10-18 11:00:00 14.6 10 Sur 13 Sur 0.4 -- -- 95
2017-10-18 10:00:00 14.1 9 Sudoeste 26 Oeste 0.4 -- -- 95
2017-10-18 09:00:00 13.7 13 Sur 24 Sur 0.6 -- -- 94
2017-10-18 08:00:00 13.4 16 Sur 32 Sur 2.4 -- -- 94
2017-10-18 07:00:00 13.6 17 Sur 28 Sur 1.8 -- -- 93
2017-10-18 06:00:00 14.5 8 Sudoeste 55 Oeste 12.6 -- -- 93
2017-10-18 05:00:00 16.4 10 Oeste 30 Sur 0.2 -- -- 81
2017-10-18 04:00:00 17.6 22 Sur 33 Sur 0 -- -- 63
2017-10-18 03:00:00 17.7 19 Sur 32 Sur 0 -- -- 64
2017-10-18 02:00:00 18 22 Sur 32 Sur 0 -- -- 64
2017-10-18 01:00:00 17.4 17 Sur 24 Sur 0 -- -- 63
2017-10-18 00:00:00 16.7 10 Sur 22 Sudoeste 0 -- -- 71
2017-10-17 23:00:00 17.5 14 Sur 25 Sudoeste 0 -- -- 66
2017-10-17 22:00:00 18.5 18 Sur 24 Sur 0 -- -- 60
2017-10-17 21:00:00 19.1 15 Sur 29 Sur 0 -- -- 54
2017-10-17 20:00:00 20.4 21 Sur 32 Sur 0 -- -- 50
2017-10-17 19:00:00 21.5 19 Sur 33 Sur 0 -- -- 46
2017-10-17 18:00:00 22.8 23 Sur 35 Sur 0 -- -- 40
2017-10-17 17:00:00 23.8 23 Sur 39 Sur 0 -- -- 40
2017-10-17 16:00:00 22.1 23 Sur 35 Sur 0 -- -- 47
2017-10-17 15:00:00 21.2 23 Sur 38 Sur 0 -- -- 48
2017-10-17 14:00:00 21.1 24 Sudeste 41 Sudeste 0 -- -- 47
2017-10-17 13:00:00 20.6 26 Sudeste 42 Sur 0 -- -- 49
2017-10-17 12:00:00 20.6 26 Sudeste 38 Sudeste 0 -- -- 46
2017-10-17 11:00:00 20.9 26 Sudeste 39 Sudeste 0 -- -- 42
2017-10-17 10:00:00 19.9 19 Sudeste 27 Sudeste 0 -- -- 42
2017-10-17 09:00:00 18.6 10 Sudeste 15 Sudeste 0 -- -- 47
2017-10-17 08:00:00 18.2 5 Este 15 Este 0 -- -- 45
2017-10-17 07:00:00 18.4 8 Nordeste 16 Sudeste 0 -- -- 44
2017-10-17 06:00:00 18.9 11 Sudeste 19 Sudeste 0 -- -- 49
2017-10-17 05:00:00 18.3 9 Sudeste 18 Sudeste 0 -- -- 52
2017-10-17 04:00:00 17.2 7 Sur 17 Sudeste 0 -- -- 58
2017-10-17 03:00:00 17.5 6 Sur 24 Sudeste 0 -- -- 57
2017-10-17 02:00:00 18.7 14 Sudeste 31 Sudeste 0 -- -- 49
2017-10-17 01:00:00 18.5 19 Sudeste 32 Sur 0 -- -- 47
2017-10-17 00:00:00 18.5 19 Sur 33 Sudeste 0 -- -- 47
2017-10-16 23:00:00 17.9 18 Sur 26 Sur 0 -- -- 59
2017-10-16 22:00:00 17.8 15 Sur 21 Sur 0 -- -- 59
2017-10-16 21:00:00 18.8 17 Sur 29 Sur 0 -- -- 56
2017-10-16 20:00:00 20.5 21 Sur 33 Sur 0 -- -- 48
2017-10-16 19:00:00 22.7 26 Sur 37 Sur 0 -- -- 40
2017-10-16 18:00:00 25.1 27 Sur 37 Sur 0 -- -- 31
2017-10-16 17:00:00 26.4 25 Sur 36 Sur 0 -- -- 27
2017-10-16 16:00:00 26.7 22 Sur 37 Sur 0 -- -- 28
2017-10-16 15:00:00 26.4 24 Sur 38 Sur 0 -- -- 30
2017-10-16 14:00:00 25.7 24 Sur 39 Sur 0 -- -- 30
2017-10-16 13:00:00 25.2 24 Sur 37 Sur 0 -- -- 28
2017-10-16 12:00:00 24.9 21 Sur 32 Sur 0 -- -- 25
2017-10-16 11:00:00 21.4 11 Nordeste 16 Nordeste 0 -- -- 31
2017-10-16 10:00:00 19.1 8 Nordeste 14 Este 0 -- -- 37
2017-10-16 09:00:00 17.6 6 Este 11 Este 0 -- -- 43
2017-10-16 08:00:00 17.9 6 Este 17 Este 0 -- -- 45
2017-10-16 07:00:00 17.6 11 Este 21 Sudeste 0 -- -- 46
2017-10-16 06:00:00 18.6 12 Sudeste 21 Sudeste 0 -- -- 44
2017-10-16 05:00:00 18.4 15 Sur 30 Sur 0 -- -- 56
2017-10-16 04:00:00 18.9 22 Sur 32 Sudeste 0 -- -- 57
2017-10-16 03:00:00 18.6 24 Sur 35 Sur 0 -- -- 62
2017-10-16 02:00:00 18.3 18 Sur 33 Sudeste 0 -- -- 60
2017-10-16 01:00:00 19.4 22 Sur 33 Sur 0 -- -- 41
2017-10-16 00:00:00 20.5 18 Sur 24 Sur 0 -- -- 32
2017-10-15 23:00:00 22.5 12 Sur 23 Sudeste 0 -- -- 20
2017-10-15 22:00:00 23.3 13 Sudeste 29 Sudeste 0 -- -- 21
2017-10-15 21:00:00 23 12 Sudeste 22 Sur 0 -- -- 23
2017-10-15 20:00:00 24.4 13 Sur 31 Sur 0 -- -- 20
2017-10-15 19:00:00 27 22 Sur 42 Sudeste 0 -- -- 15
2017-10-15 18:00:00 28.5 25 Sudeste 41 Sudeste 0 -- -- 13
2017-10-15 17:00:00 29.2 26 Sudeste 43 Sudeste 0 -- -- 12
2017-10-15 16:00:00 29.5 29 Sur 43 Sur 0 -- -- 12
2017-10-15 15:00:00 29.9 28 Sur 43 Sur 0 -- -- 11
2017-10-15 14:00:00 29.5 24 Sur 44 Sudeste 0 -- -- 12
2017-10-15 13:00:00 28.7 32 Sur 42 Sur 0 -- -- 12
2017-10-15 12:00:00 27.7 14 Sudeste 34 Sur 0 -- -- 15
2017-10-15 11:00:00 23.3 8 Nordeste 14 Nordeste 0 -- -- 25
2017-10-15 10:00:00 19.9 6 Nordeste 13 Este 0 -- -- 31
2017-10-15 09:00:00 18.7 10 Este 20 Nordeste 0 -- -- 32
2017-10-15 08:00:00 18.1 10 Este 17 Este 0 -- -- 35
2017-10-15 07:00:00 17.6 3 Nordeste 20 Sur 0 -- -- 37
2017-10-15 06:00:00 18.1 13 Sur 24 Sur 0 -- -- 38
2017-10-15 05:00:00 18.6 16 Sur 21 Sur 0 -- -- 35
2017-10-15 04:00:00 19.4 5 Este 10 Nordeste 0 -- -- 34
2017-10-15 03:00:00 19.3 4 Este 10 Nordeste 0 -- -- 35
2017-10-15 02:00:00 20.1 9 Sur 15 Sudeste 0 -- -- 31
2017-10-15 01:00:00 19.9 10 Sur 20 Sur 0 -- -- 31
2017-10-15 00:00:00 21 16 Sur 20 Sur 0 -- -- 28
2017-10-14 23:00:00 22.1 14 Sur 19 Sur 0 -- -- 25
2017-10-14 22:00:00 22.3 4 Sudeste 23 Sudoeste 0 -- -- 25
2017-10-14 21:00:00 23.8 15 Sur 24 Sur 0 -- -- 22
2017-10-14 20:00:00 26.4 13 Sur 23 Sudoeste 0 -- -- 20
2017-10-14 19:00:00 29.1 14 Sur 21 Sur 0 -- -- 16
2017-10-14 18:00:00 30.4 10 Sur 21 Sudoeste 0 -- -- 16
2017-10-14 17:00:00 30.9 14 Sur 23 Sudoeste 0 -- -- 14
2017-10-14 16:00:00 30.6 12 Sudoeste 20 Sudoeste 0 -- -- 14
2017-10-14 15:00:00 28.5 14 Sudoeste 20 Sudoeste 0 -- -- 16
2017-10-14 14:00:00 28.8 12 Sudoeste 20 Sudoeste 0 -- -- 16
2017-10-14 13:00:00 27.7 4 Noroeste 10 Noroeste 0 -- -- 20
2017-10-14 12:00:00 25.1 6 Nordeste 10 Nordeste 0 -- -- 24
2017-10-14 11:00:00 23.1 6 Nordeste 16 Nordeste 0 -- -- 24
2017-10-14 10:00:00 19.9 14 Nordeste 19 Este 0 -- -- 31
2017-10-14 09:00:00 18.4 12 Este 19 Nordeste 0 -- -- 33
2017-10-14 08:00:00 18.9 6 Este 14 Este 0 -- -- 32
2017-10-14 07:00:00 18.9 6 Nordeste 14 Sudeste 0 -- -- 31
2017-10-14 06:00:00 19.5 5 Sudeste 16 Nordeste 0 -- -- 26
2017-10-14 05:00:00 19.3 14 Nordeste 17 Nordeste 0 -- -- 30
2017-10-14 04:00:00 20.2 5 Nordeste 12 Nordeste 0 -- -- 29
2017-10-14 03:00:00 21.1 7 Este 11 Nordeste 0 -- -- 26
2017-10-14 02:00:00 22.3 8 Nordeste 12 Este 0 -- -- 23
2017-10-14 01:00:00 22.8 6 Este 9 Este 0 -- -- 19
2017-10-14 00:00:00 22.2 7 Sudeste 17 Sur 0 -- -- 20
2017-10-13 23:00:00 22.5 15 Sur 20 Sur 0 -- -- 20
2017-10-13 22:00:00 23.3 15 Sur 22 Sur 0 -- -- 19
2017-10-13 21:00:00 24.6 16 Sur 20 Sur 0 -- -- 17
2017-10-13 20:00:00 26.7 15 Sur 21 Sur 0 -- -- 14
2017-10-13 19:00:00 29.2 17 Sur 28 Sur 0 -- -- 12
2017-10-13 18:00:00 31.2 18 Sur 29 Sudoeste 0 -- -- 11
2017-10-13 17:00:00 32.5 19 Sur 30 Sur 0 -- -- 10
2017-10-13 16:00:00 32.6 14 Sudoeste 28 Sur 0 -- -- 10
2017-10-13 15:00:00 32.2 16 Sur 27 Sur 0 -- -- 10
2017-10-13 14:00:00 29.5 22 Sur 35 Sur 0 -- -- 11
2017-10-13 13:00:00 28.3 16 Sur 24 Sur 0 -- -- 13
2017-10-13 12:00:00 25.2 5 Norte 13 Nordeste 0 -- -- 21
2017-10-13 11:00:00 24.6 2 Sudoeste 10 Este 0 -- -- 22
2017-10-13 10:00:00 21.6 8 Nordeste 14 Nordeste 0 -- -- 25
2017-10-13 09:00:00 20.8 10 Nordeste 13 Nordeste 0 -- -- 26
2017-10-13 08:00:00 20.4 0 Calma 12 Nordeste 0 -- -- 25
2017-10-13 07:00:00 20.5 9 Nordeste 15 Nordeste 0 -- -- 27
2017-10-13 06:00:00 20.8 12 Este 16 Este 0 -- -- 27
2017-10-13 05:00:00 21.6 5 Nordeste 8 Nordeste 0 -- -- 24
2017-10-13 04:00:00 22.4 3 Este 11 Nordeste 0 -- -- 21
2017-10-13 03:00:00 22.5 6 Nordeste 12 Nordeste 0 -- -- 24
2017-10-13 02:00:00 24.2 8 Este 27 Sudeste 0 -- -- 19
2017-10-13 01:00:00 25 19 Sudeste 28 Sudeste 0 -- -- 15
2017-10-13 00:00:00 25.3 16 Sudeste 25 Sur 0 -- -- 16
2017-10-12 23:00:00 25.4 12 Sudeste 24 Sur 0 -- -- 16
2017-10-12 22:00:00 25.1 15 Sudeste 28 Sudeste 0 -- -- 18
2017-10-12 21:00:00 24.4 16 Sur 23 Sur 0 -- -- 21
2017-10-12 20:00:00 25.9 20 Sur 27 Sur 0 -- -- 19
2017-10-12 19:00:00 27.8 15 Sur 25 Sur 0 -- -- 19
2017-10-12 18:00:00 28.4 19 Sur 30 Sur 0 -- -- 19
2017-10-12 17:00:00 29.1 21 Sudoeste 36 Sur 0 -- -- 18
2017-10-12 16:00:00 31.5 26 Sur 36 Sur 0 -- -- 12
2017-10-12 15:00:00 30.2 6 Sur 16 Sur 0 -- -- 15
2017-10-12 14:00:00 28.3 6 Este 14 Nordeste 0 -- -- 18
2017-10-12 13:00:00 27.1 6 Nordeste 16 Este 0 -- -- 22
2017-10-12 12:00:00 24.3 9 Este 12 Este 0 -- -- 24
2017-10-12 11:00:00 25.3 3 Noroeste 13 Nordeste 0 -- -- 20
2017-10-12 10:00:00 22.7 9 Nordeste 17 Nordeste 0 -- -- 22
2017-10-12 09:00:00 20.6 12 Nordeste 20 Nordeste 0 -- -- 23
2017-10-12 08:00:00 20.5 13 Este 19 Este 0 -- -- 24
2017-10-12 07:00:00 21.7 15 Sudeste 26 Sudeste 0 -- -- 19
2017-10-12 06:00:00 21.2 10 Sudeste 14 Este 0 -- -- 23
2017-10-12 05:00:00 20.7 9 Este 14 Este 0 -- -- 26
2017-10-12 04:00:00 21.5 9 Este 19 Sudeste 0 -- -- 24
2017-10-12 03:00:00 20 12 Sudeste 17 Sur 0 -- -- 27
2017-10-12 02:00:00 21.1 9 Este 17 Este 0 -- -- 25
2017-10-12 01:00:00 21.4 14 Este 18 Nordeste 0 -- -- 30
2017-10-12 00:00:00 22 12 Sudeste 29 Sudoeste 0 -- -- 25
2017-10-11 23:00:00 21.4 12 Sudeste 20 Sur 0 -- -- 27
2017-10-11 22:00:00 21.8 15 Sur 25 Sur 0 -- -- 24
2017-10-11 21:00:00 22.3 17 Sur 23 Sur 0 -- -- 22
2017-10-11 20:00:00 24.8 18 Sur 27 Sur 0 -- -- 19
2017-10-11 19:00:00 28 18 Sur 29 Sur 0 -- -- 18
2017-10-11 18:00:00 29.7 19 Sur 26 Sur 0 -- -- 18
2017-10-11 17:00:00 30.8 14 Sur 24 Sur 0 -- -- 14
2017-10-11 16:00:00 30.6 13 Sudeste 26 Sur 0 -- -- 14
2017-10-11 15:00:00 30.4 12 Sur 25 Sur 0 -- -- 13
2017-10-11 14:00:00 29.3 15 Sur 24 Sur 0 -- -- 16
2017-10-11 13:00:00 27.8 10 Sur 23 Sur 0 -- -- 19
2017-10-11 12:00:00 24.3 4 Este 14 Nordeste 0 -- -- 28
2017-10-11 11:00:00 20.6 11 Nordeste 14 Nordeste 0 -- -- 34
2017-10-11 10:00:00 18.1 4 Nordeste 15 Nordeste 0 -- -- 42
2017-10-11 09:00:00 14.9 4 Nordeste 11 Este 0 -- -- 52
2017-10-11 08:00:00 15.2 4 Este 9 Sur 0 -- -- 53
2017-10-11 07:00:00 15.2 4 Sudeste 11 Nordeste 0 -- -- 58
2017-10-11 06:00:00 16.3 8 Este 10 Este 0 -- -- 48
2017-10-11 05:00:00 17 4 Este 7 Nordeste 0 -- -- 45
2017-10-11 04:00:00 17.3 6 Este 13 Sur 0 -- -- 48
2017-10-11 03:00:00 18 10 Sur 15 Sur 0 -- -- 52
2017-10-11 02:00:00 18 4 Sudeste 16 Sur 0 -- -- 51
2017-10-11 01:00:00 18.1 9 Sur 11 Sudoeste 0 -- -- 48
2017-10-11 00:00:00 19.3 4 Sur 17 Sudeste 0 -- -- 43
2017-10-10 23:00:00 20.2 13 Sur 19 Sur 0 -- -- 40
2017-10-10 22:00:00 20.9 11 Sur 18 Sur 0 -- -- 38
2017-10-10 21:00:00 22.2 14 Sur 22 Sudoeste 0 -- -- 36
2017-10-10 20:00:00 24.6 14 Sudoeste 25 Sur 0 -- -- 30
2017-10-10 19:00:00 27.5 17 Sur 28 Sur 0 -- -- 25
2017-10-10 18:00:00 29.1 17 Sudoeste 27 Sudoeste 0 -- -- 17
2017-10-10 17:00:00 29.7 12 Sudoeste 24 Sudoeste 0 -- -- 17
2017-10-10 16:00:00 30.1 11 Sur 24 Sur 0 -- -- 18
2017-10-10 15:00:00 29.7 14 Sudoeste 22 Sudoeste 0 -- -- 19
2017-10-10 14:00:00 28.8 7 Noroeste 13 Sudoeste 0 -- -- 20
2017-10-10 13:00:00 27 3 Nordeste 8 Norte 0 -- -- 26
2017-10-10 12:00:00 23.4 5 Nordeste 8 Nordeste 0 -- -- 33
2017-10-10 11:00:00 20.3 5 Nordeste 8 Nordeste 0 -- -- 41
2017-10-10 10:00:00 17.3 5 Nordeste 8 Nordeste 0 -- -- 49
2017-10-10 09:00:00 15.7 5 Sudeste 8 Sudeste 0 -- -- 55
2017-10-10 08:00:00 16.2 6 Sudeste 11 Sudeste 0 -- -- 55
2017-10-10 07:00:00 16.6 8 Sudeste 17 Sur 0 -- -- 54
2017-10-10 06:00:00 16.7 6 Sudeste 10 Sur 0 -- -- 54
2017-10-10 05:00:00 16.9 7 Sudeste 12 Sur 0 -- -- 52
2017-10-10 04:00:00 17.5 4 Sudeste 6 Sur 0 -- -- 51
2017-10-10 03:00:00 18.4 4 Este 13 Este 0 -- -- 48
2017-10-10 02:00:00 18.4 8 Sudeste 13 Sudeste 0 -- -- 50
2017-10-10 01:00:00 19.2 9 Sur 12 Sur 0 -- -- 48
2017-10-10 00:00:00 20.3 8 Sudoeste 15 Sur 0 -- -- 44
2017-10-09 23:00:00 20.1 11 Sur 25 Sur 0 -- -- 45
2017-10-09 22:00:00 21.3 18 Sur 23 Sur 0 -- -- 42
2017-10-09 21:00:00 22.8 13 Sur 19 Sur 0 -- -- 38
2017-10-09 20:00:00 26.4 4 Sudoeste 13 Noroeste 0 -- -- 20
2017-10-09 19:00:00 28.7 8 Noroeste 17 Oeste 0 -- -- 17
2017-10-09 18:00:00 29.7 10 Oeste 21 Oeste 0 -- -- 17
2017-10-09 17:00:00 29.9 11 Oeste 24 Noroeste 0 -- -- 16
2017-10-09 16:00:00 29.9 7 Noroeste 22 Noroeste 0 -- -- 17
2017-10-09 15:00:00 29.2 7 Noroeste 22 Oeste 0 -- -- 19
2017-10-09 14:00:00 28.4 3 Oeste 12 Oeste 0 -- -- 26
2017-10-09 13:00:00 26.1 4 Noroeste 8 Oeste 0 -- -- 33
2017-10-09 12:00:00 23.4 4 Nordeste 10 Nordeste 0 -- -- 40
2017-10-09 11:00:00 20 7 Nordeste 10 Nordeste 0 -- -- 48
2017-10-09 10:00:00 17.1 5 Nordeste 9 Nordeste 0 -- -- 58
2017-10-09 09:00:00 15.5 5 Este 8 Este 0 -- -- 64
2017-10-09 08:00:00 16 3 Sudeste 7 Sudeste 0 -- -- 64
2017-10-09 07:00:00 16.3 5 Sudeste 9 Este 0 -- -- 63
2017-10-09 06:00:00 16.9 5 Este 6 Este 0 -- -- 59
2017-10-09 05:00:00 17.6 4 Nordeste 8 Sudeste 0 -- -- 57
2017-10-09 04:00:00 17.2 7 Sudeste 15 Sur 0 -- -- 61
2017-10-09 03:00:00 17.8 12 Sur 20 Sur 0 -- -- 60
2017-10-09 02:00:00 18.3 13 Sur 20 Sur 0 -- -- 58
2017-10-09 01:00:00 18.7 13 Sur 18 Sur 0 -- -- 55
2017-10-09 00:00:00 19.8 10 Sudeste 22 Sur 0 -- -- 50
2017-10-08 23:00:00 20.3 16 Sur 22 Sur 0 -- -- 48
2017-10-08 22:00:00 21.4 14 Sur 19 Sur 0 -- -- 43
2017-10-08 21:00:00 22.7 12 Sur 17 Sur 0 -- -- 39
2017-10-08 20:00:00 25.1 12 Sur 17 Sur 0 -- -- 33
2017-10-08 19:00:00 28.3 9 Sudoeste 14 Sudoeste 0 -- -- 25
2017-10-08 18:00:00 28.9 11 Sudoeste 17 Sudoeste 0 -- -- 26
2017-10-08 17:00:00 29.3 10 Sudoeste 20 Sudoeste 0 -- -- 26
2017-10-08 16:00:00 29 4 Noroeste 13 Oeste 0 -- -- 26
2017-10-08 15:00:00 28.3 5 Oeste 17 Oeste 0 -- -- 26
2017-10-08 14:00:00 27.5 6 Sudeste 14 Sudeste 0 -- -- 28
2017-10-08 13:00:00 26.2 6 Sur 15 Sur 0 -- -- 32
2017-10-08 12:00:00 24 4 Norte 8 Nordeste 0 -- -- 39
2017-10-08 11:00:00 21.5 4 Norte 8 Norte 0 -- -- 46
2017-10-08 10:00:00 19.7 0 Calma 9 Este 0 -- -- 54
2017-10-08 09:00:00 17.8 7 Este 12 Sudeste 0 -- -- 57
2017-10-08 08:00:00 17.4 9 Sudeste 15 Sudeste 0 -- -- 61
2017-10-08 07:00:00 17.6 12 Sudeste 21 Sudeste 0 -- -- 65
2017-10-08 06:00:00 18.1 15 Sudeste 23 Sudeste 0 -- -- 63
2017-10-08 05:00:00 18.4 13 Sudeste 18 Sudeste 0 -- -- 59
2017-10-08 04:00:00 18.7 10 Sur 16 Sudeste 0 -- -- 55
2017-10-08 03:00:00 19.2 12 Sudeste 18 Sudeste 0 -- -- 56
2017-10-08 02:00:00 19.5 13 Sur 24 Sur 0 -- -- 57
2017-10-08 01:00:00 20 17 Sur 26 Sur 0 -- -- 54
2017-10-08 00:00:00 20.1 14 Sur 21 Sur 0 -- -- 54
2017-10-07 23:00:00 20.4 13 Sudeste 27 Sur 0 -- -- 54
2017-10-07 22:00:00 20.5 22 Sur 30 Sur 0 -- -- 56
2017-10-07 21:00:00 21.1 21 Sur 31 Sur 0 -- -- 53
2017-10-07 20:00:00 22.5 24 Sur 32 Sur 0 -- -- 49
2017-10-07 19:00:00 25.2 24 Sudoeste 36 Sur 0 -- -- 40
2017-10-07 18:00:00 27.2 22 Sur 37 Sur 0 -- -- 34
2017-10-07 17:00:00 28 24 Sur 34 Sur 0 -- -- 33
2017-10-07 16:00:00 28.6 21 Sur 34 Sur 0 -- -- 33
2017-10-07 15:00:00 28.9 19 Sur 32 Sur 0 -- -- 32
2017-10-07 14:00:00 28.6 17 Sur 30 Sudoeste 0 -- -- 28
2017-10-07 13:00:00 27.6 19 Sudoeste 29 Sur 0 -- -- 30
2017-10-07 12:00:00 25.4 15 Sur 24 Sudoeste 0 -- -- 36
2017-10-07 11:00:00 22.9 15 Sur 22 Sur 0 -- -- 41
2017-10-07 10:00:00 20 12 Sur 21 Sur 0 -- -- 44
2017-10-07 09:00:00 18 17 Sur 21 Sur 0 -- -- 47
2017-10-07 08:00:00 17.8 8 Este 14 Nordeste 0 -- -- 48
2017-10-07 07:00:00 17.9 -- -- -- -- 0 -- -- 49
2017-10-07 06:00:00 18.9 9 Este 12 Nordeste 0 -- -- 46
2017-10-07 05:00:00 19.1 8 Nordeste 15 Nordeste 0 -- -- 45
2017-10-07 04:00:00 20.2 11 Nordeste 13 Nordeste 0 -- -- 42
2017-10-07 03:00:00 22.6 6 Este 10 Este 0 -- -- 36
2017-10-07 02:00:00 23 7 Sudeste 9 Sudeste 0 -- -- 35
2017-10-07 01:00:00 23.4 6 Este 9 Este 0 -- -- 33
2017-10-07 00:00:00 23.8 3 Este 14 Norte 0 -- -- 31
2017-10-06 23:00:00 24.8 8 Noroeste 14 Noroeste 0 -- -- 28
2017-10-06 22:00:00 26 4 Nordeste 6 Norte 0 -- -- 25
2017-10-06 21:00:00 27 4 Noroeste 12 Noroeste 0 -- -- 23
2017-10-06 20:00:00 28.3 9 Noroeste 14 Noroeste 0 -- -- 22
2017-10-06 19:00:00 30.7 11 Noroeste 18 Oeste 0 -- -- 19
2017-10-06 18:00:00 31.2 11 Noroeste 19 Noroeste 0 -- -- 19
2017-10-06 17:00:00 31.1 12 Noroeste 23 Noroeste 0 -- -- 19
2017-10-06 16:00:00 31 7 Oeste 21 Noroeste 0 -- -- 19
2017-10-06 15:00:00 30.6 9 Oeste 21 Oeste 0 -- -- 19
2017-10-06 14:00:00 29.5 5 Noroeste 13 Sudoeste 0 -- -- 22
2017-10-06 13:00:00 27.5 4 Sudoeste 9 Sudoeste 0 -- -- 28
2017-10-06 12:00:00 24.3 4 Nordeste 12 Nordeste 0 -- -- 35
2017-10-06 11:00:00 20.9 9 Este 18 Nordeste 0 -- -- 46
2017-10-06 10:00:00 17.6 13 Nordeste 17 Nordeste 0 -- -- 55
2017-10-06 09:00:00 16 3 Este 13 Este 0 -- -- 57
2017-10-06 08:00:00 15.9 5 Sur 9 Sudeste 0 -- -- 55
2017-10-06 07:00:00 16.6 5 Este 9 Nordeste 0 -- -- 58
2017-10-06 06:00:00 16.9 5 Este 10 Este 0 -- -- 56
2017-10-06 05:00:00 16.7 3 Este 16 Sur 0 -- -- 57
2017-10-06 04:00:00 17.8 10 Sur 16 Sur 0 -- -- 55
2017-10-06 03:00:00 18.8 3 Este 8 Este 0 -- -- 56
2017-10-06 02:00:00 18.7 6 Sudeste 14 Sudeste 0 -- -- 53
2017-10-06 01:00:00 18.9 7 Sur 15 Sur 0 -- -- 54
2017-10-06 00:00:00 19.1 9 Sur 18 Sur 0 -- -- 55
2017-10-05 23:00:00 20 8 Sur 25 Sur 0 -- -- 54
2017-10-05 22:00:00 20.7 15 Sur 22 Sur 0 -- -- 55
2017-10-05 21:00:00 22 16 Sur 26 Sudoeste 0 -- -- 53
2017-10-05 20:00:00 23.9 18 Sudoeste 27 Sudoeste 0 -- -- 47
2017-10-05 19:00:00 26.3 17 Sudoeste 26 Sudoeste 0 -- -- 39
2017-10-05 18:00:00 27.6 16 Sudoeste 29 Sudoeste 0 -- -- 35
2017-10-05 17:00:00 28 19 Oeste 30 Sudoeste 0 -- -- 34
2017-10-05 16:00:00 28.9 13 Oeste 27 Sudoeste 0 -- -- 31
2017-10-05 15:00:00 28.5 10 Sudoeste 20 Sudoeste 0 -- -- 28
2017-10-05 14:00:00 28.1 8 Sur 17 Sur 0 -- -- 28
2017-10-05 13:00:00 26.7 9 Sudeste 19 Sudeste 0 -- -- 30
2017-10-05 12:00:00 24.4 5 Nordeste 13 Nordeste 0 -- -- 38
2017-10-05 11:00:00 22.3 7 Nordeste 13 Nordeste 0 -- -- 48
2017-10-05 10:00:00 20.2 6 Nordeste 12 Nordeste 0 -- -- 56
2017-10-05 09:00:00 17.2 4 Este 15 Este 0 -- -- 66
2017-10-05 08:00:00 17.3 10 Sudeste 17 Sudeste 0 -- -- 67
2017-10-05 07:00:00 18.1 8 Este 15 Sudeste 0 -- -- 65
2017-10-05 06:00:00 18.3 4 Sudeste 8 Este 0 -- -- 65
2017-10-05 05:00:00 18.5 6 Este 8 Sudeste 0 -- -- 65
2017-10-05 04:00:00 19 6 Sudeste 10 Sudeste 0 -- -- 63
2017-10-05 03:00:00 18.9 6 Sudeste 16 Sur 0 -- -- 64
2017-10-05 02:00:00 19.5 12 Sudeste 18 Sur 0 -- -- 62
2017-10-05 01:00:00 19.8 13 Sur 18 Sur 0 -- -- 62
2017-10-05 00:00:00 20.2 8 Sur 21 Sur 0 -- -- 61
2017-10-04 23:00:00 20.8 17 Sur 33 Sur 0 -- -- 59
2017-10-04 22:00:00 21.3 24 Sur 35 Sur 0 -- -- 56
2017-10-04 21:00:00 21.7 20 Sur 40 Sur 0 -- -- 54
2017-10-04 20:00:00 22.9 28 Sur 39 Sur 0 -- -- 49
2017-10-04 19:00:00 24.2 25 Sur 45 Sur 0 -- -- 44
2017-10-04 18:00:00 25.9 30 Sur 48 Sur 0 -- -- 38
2017-10-04 17:00:00 26.4 34 Sur 48 Sur 0 -- -- 37
2017-10-04 16:00:00 26.8 33 Sur 46 Sur 0 -- -- 38
2017-10-04 15:00:00 27.2 28 Sur 43 Sur 0 -- -- 36
2017-10-04 14:00:00 26.4 30 Sur 40 Sur 0 -- -- 39
2017-10-04 13:00:00 26.1 21 Sur 33 Sur 0 -- -- 41
2017-10-04 12:00:00 25.1 5 Sudeste 15 Sur 0 -- -- 41
2017-10-04 11:00:00 23.3 5 Norte 12 Este 0 -- -- 45
2017-10-04 10:00:00 21.8 6 Sudeste 10 Este 0 -- -- 49
2017-10-04 09:00:00 19.3 8 Sudeste 13 Sudeste 0 -- -- 56
2017-10-04 08:00:00 19 6 Este 15 Sudeste 0 -- -- 55
2017-10-04 07:00:00 19.2 12 Sudeste 18 Sudeste 0 -- -- 53
2017-10-04 06:00:00 19.5 9 Sudeste 22 Sudeste 0 -- -- 50
2017-10-04 05:00:00 19.5 12 Sudeste 16 Sudeste 0 -- -- 50
2017-10-04 04:00:00 19.4 11 Sudeste 13 Sudeste 0 -- -- 51
2017-10-04 03:00:00 19.3 3 Sur 14 Sudeste 0 -- -- 51
2017-10-04 02:00:00 19.9 13 Sur 16 Sudeste 0 -- -- 51
2017-10-04 01:00:00 19.4 6 Sur 13 Sudeste 0 -- -- 58
2017-10-04 00:00:00 19.9 7 Sur 13 Sur 0 -- -- 57
2017-10-03 23:00:00 20.4 10 Sur 23 Sur 0 -- -- 58
2017-10-03 22:00:00 21.2 19 Sur 31 Sur 0 -- -- 56
2017-10-03 21:00:00 22.1 22 Sur 30 Sur 0 -- -- 52
2017-10-03 20:00:00 23.8 21 Sudoeste 30 Sur 0 -- -- 50
2017-10-03 19:00:00 26.3 19 Sudoeste 28 Sur 0 -- -- 41
2017-10-03 18:00:00 28 18 Sudoeste 30 Oeste 0 -- -- 35
2017-10-03 17:00:00 28.9 15 Sudoeste 28 Sudoeste 0 -- -- 34
2017-10-03 16:00:00 28.8 8 Oeste 18 Noroeste 0 -- -- 31
2017-10-03 15:00:00 28.6 6 Sur 15 Sur 0 -- -- 31
2017-10-03 14:00:00 27.6 6 Sudeste 15 Sur 0 -- -- 34
2017-10-03 13:00:00 26.4 4 Este 12 Sudeste 0 -- -- 38
2017-10-03 12:00:00 24.2 5 Oeste 10 Sudoeste 0 -- -- 43
2017-10-03 11:00:00 22.8 2 Norte 6 Noroeste 0 -- -- 50
2017-10-03 10:00:00 20.6 4 Norte 15 Este 0 -- -- 56
2017-10-03 09:00:00 18.5 11 Sudeste 16 Este 0 -- -- 65
2017-10-03 08:00:00 17.5 7 Sudeste 16 Sudeste 0 -- -- 69
2017-10-03 07:00:00 18.3 12 Sudeste 16 Sudeste 0 -- -- 68
2017-10-03 06:00:00 18.5 10 Sudeste 15 Sudeste 0 -- -- 66
2017-10-03 05:00:00 17.2 6 Sur 10 Sudeste 0 -- -- 71
2017-10-03 04:00:00 17.4 8 Sur 14 Sur 0 -- -- 68
2017-10-03 03:00:00 18.2 11 Sur 15 Sur 0 -- -- 64
2017-10-03 02:00:00 19.1 12 Sur 19 Sudeste 0 -- -- 61
2017-10-03 01:00:00 19.1 10 Sur 17 Sur 0 -- -- 60
2017-10-03 00:00:00 19.4 11 Sur 19 Sur 0 -- -- 59
2017-10-02 23:00:00 20.6 15 Sur 27 Sur 0 -- -- 56
2017-10-02 22:00:00 20.9 18 Sur 31 Sur 0 -- -- 57
2017-10-02 21:00:00 21.9 21 Sur 31 Sur 0 -- -- 54
2017-10-02 20:00:00 23.2 22 Sur 33 Sur 0 -- -- 49
2017-10-02 19:00:00 25.9 21 Sur 36 Sudoeste 0 -- -- 43
2017-10-02 18:00:00 27 26 Sur 37 Sur 0 -- -- 39
2017-10-02 17:00:00 28.3 23 Sudoeste 31 Sur 0 -- -- 36
2017-10-02 16:00:00 28.1 21 Sudoeste 30 Oeste 0 -- -- 36
2017-10-02 15:00:00 28.5 8 Sur 15 Sudoeste 0 -- -- 32
2017-10-02 14:00:00 27.8 4 Sudoeste 14 Sudoeste 0 -- -- 34
2017-10-02 13:00:00 26.6 3 Sudoeste 13 Sudoeste 0 -- -- 38
2017-10-02 12:00:00 24.7 4 Oeste 11 Sudoeste 0 -- -- 44
2017-10-02 11:00:00 22.4 5 Oeste 9 Oeste 0 -- -- 55
2017-10-02 10:00:00 19.8 0 Calma 6 Nordeste 0 -- -- 60
2017-10-02 09:00:00 17.5 4 Este 10 Este 0 -- -- 67
2017-10-02 08:00:00 17.2 5 Este 8 Este 0 -- -- 67
2017-10-02 07:00:00 17.8 3 Sudeste 9 Este 0 -- -- 65
2017-10-02 06:00:00 18.2 8 Este 11 Este 0 -- -- 65
2017-10-02 05:00:00 18.1 6 Sudeste 15 Sur 0 -- -- 65
2017-10-02 04:00:00 18.1 6 Sur 12 Sudoeste 0 -- -- 66
2017-10-02 03:00:00 18.6 7 Sudoeste 20 Sur 0 -- -- 62
2017-10-02 02:00:00 19.3 15 Sur 24 Sur 0 -- -- 60
2017-10-02 01:00:00 19.7 14 Sur 23 Sur 0 -- -- 58
2017-10-02 00:00:00 20.8 10 Sur 16 Sur 0 -- -- 53
2017-10-01 23:00:00 21.3 7 Sur 17 Sur 0 -- -- 50
2017-10-01 22:00:00 22 15 Sur 24 Sur 0 -- -- 48
2017-10-01 21:00:00 23.4 17 Sur 24 Sur 0 -- -- 44
2017-10-01 20:00:00 26.2 13 Sur 20 Sur 0 -- -- 36
2017-10-01 19:00:00 29.7 7 Noroeste 19 Oeste 0 -- -- 23
2017-10-01 18:00:00 30.4 10 Noroeste 23 Noroeste 0 -- -- 23
2017-10-01 17:00:00 30.8 10 Oeste 21 Oeste 0 -- -- 23
2017-10-01 16:00:00 30.8 7 Noroeste 21 Oeste 0 -- -- 23
2017-10-01 15:00:00 30.5 8 Oeste 13 Noroeste 0 -- -- 23
2017-10-01 14:00:00 29.2 8 Noroeste 14 Noroeste 0 -- -- 27
2017-10-01 13:00:00 27.3 4 Oeste 9 Noroeste 0 -- -- 31
2017-10-01 12:00:00 24.2 3 Noroeste 6 Noroeste 0 -- -- 41
2017-10-01 11:00:00 22.2 4 Nordeste 7 Nordeste 0 -- -- 46
2017-10-01 10:00:00 19.2 2 Este 6 Este 0 -- -- 59
2017-10-01 09:00:00 17.8 6 Sudeste 9 Sudeste 0 -- -- 62
2017-10-01 08:00:00 17.6 4 Este 6 Sur 0 -- -- 63
2017-10-01 07:00:00 18.3 4 Sur 5 Sudeste 0 -- -- 61
2017-10-01 06:00:00 18.6 4 Este 14 Sudeste 0 -- -- 57
2017-10-01 05:00:00 18.5 5 Sudeste 14 Sur 0 -- -- 61
2017-10-01 04:00:00 18.7 7 Sur 15 Sur 0 -- -- 61
2017-10-01 03:00:00 19.4 4 Sur 17 Sur 0 -- -- 59
2017-10-01 02:00:00 19.5 13 Sur 18 Sur 0 -- -- 59
2017-10-01 01:00:00 20.3 6 Sudeste 15 Sur 0 -- -- 56
2017-10-01 00:00:00 20.8 11 Sur 15 Sudeste 0 -- -- 53
2017-09-30 23:00:00 22 12 Sur 18 Sur 0 -- -- 49
2017-09-30 22:00:00 22.9 12 Sur 15 Sur 0 -- -- 45
2017-09-30 21:00:00 25.5 3 Noroeste 9 Noroeste 0 -- -- 32
2017-09-30 20:00:00 26.8 8 Noroeste 13 Noroeste 0 -- -- 29
2017-09-30 19:00:00 28.6 9 Noroeste 17 Noroeste 0 -- -- 26
2017-09-30 18:00:00 29.5 9 Noroeste 18 Oeste 0 -- -- 24
2017-09-30 17:00:00 29.3 6 Oeste 14 Sur 0 -- -- 27
2017-09-30 16:00:00 28.4 8 Noroeste 18 Sudoeste 0 -- -- 32
2017-09-30 15:00:00 27.8 6 Oeste 16 Oeste 0 -- -- 35
2017-09-30 14:00:00 26.9 5 Norte 12 Noroeste 0 -- -- 37
2017-09-30 13:00:00 25.6 4 Oeste 13 Noroeste 0 -- -- 40
2017-09-30 12:00:00 23.9 4 Nordeste 8 Nordeste 0 -- -- 45
2017-09-30 11:00:00 21.6 3 Nordeste 8 Este 0 -- -- 55
2017-09-30 10:00:00 18.2 4 Este 10 Este 0 -- -- 68
2017-09-30 09:00:00 16.4 8 Este 10 Este 0 -- -- 74
2017-09-30 08:00:00 16.1 8 Sudeste 10 Este 0 -- -- 73
2017-09-30 07:00:00 16.5 0 Calma 10 Sur 0 -- -- 70
2017-09-30 06:00:00 16.5 3 Sur 5 Sur 0 -- -- 73
2017-09-30 05:00:00 16.8 5 Sudeste 12 Sudeste 0 -- -- 70
2017-09-30 04:00:00 17.2 4 Sudeste 14 Sur 0 -- -- 67
2017-09-30 03:00:00 17.3 6 Sur 15 Sur 0 -- -- 66
2017-09-30 02:00:00 17.8 12 Sur 18 Sur 0 -- -- 65
2017-09-30 01:00:00 18.6 12 Sur 28 Sur 0 -- -- 63
2017-09-30 00:00:00 19.4 21 Sur 27 Sur 0 -- -- 59
2017-09-29 23:00:00 20 18 Sur 28 Sur 0 -- -- 57
2017-09-29 22:00:00 20.5 21 Sur 30 Sur 0 -- -- 56
2017-09-29 21:00:00 21.7 21 Sur 28 Sur 0 -- -- 53
2017-09-29 20:00:00 23.8 17 Sudoeste 26 Sudoeste 0 -- -- 46
2017-09-29 19:00:00 25.9 17 Sudoeste 26 Sudoeste 0 -- -- 40
2017-09-29 18:00:00 27 15 Sudoeste 32 Sudoeste 0 -- -- 37
2017-09-29 17:00:00 28.1 12 Sudoeste 20 Sur 0 -- -- 35
2017-09-29 16:00:00 27.4 15 Sudoeste 22 Sudoeste 0 -- -- 37
2017-09-29 15:00:00 26.9 7 Sur 19 Sur 0 -- -- 38
2017-09-29 14:00:00 25.9 12 Sur 23 Sur 0 -- -- 41
2017-09-29 13:00:00 24.9 8 Sur 17 Sur 0 -- -- 45
2017-09-29 12:00:00 23.4 8 Sur 15 Sudoeste 0 -- -- 52
2017-09-29 11:00:00 21.1 6 Sudoeste 13 Sudoeste 0 -- -- 63
2017-09-29 10:00:00 19 4 Oeste 14 Sur 0 -- -- 75
2017-09-29 09:00:00 17 12 Sur 17 Sur 0 -- -- 87
2017-09-29 08:00:00 16.5 13 Sur 17 Sur 0 -- -- 87
2017-09-29 07:00:00 16.8 9 Sur 12 Sur 0 -- -- 85
2017-09-29 06:00:00 17.3 8 Sur 13 Sur 0 -- -- 79
2017-09-29 05:00:00 17.6 9 Sur 12 Sur 0 -- -- 76
2017-09-29 04:00:00 18.8 8 Sur 17 Sur 0 -- -- 69
2017-09-29 03:00:00 19.3 12 Sur 25 Sur 0 -- -- 66
2017-09-29 02:00:00 19.5 17 Sur 27 Sur 0 -- -- 65
2017-09-29 01:00:00 19.9 17 Sur 30 Sur 0 -- -- 64
2017-09-29 00:00:00 20.3 19 Sur 26 Sur 0 -- -- 60
2017-09-28 23:00:00 20.4 15 Sur 25 Sur 0 -- -- 57
2017-09-28 22:00:00 20.8 18 Sur 27 Sur 0 -- -- 54
2017-09-28 21:00:00 21.4 19 Sur 28 Sudoeste 0 -- -- 48
2017-09-28 20:00:00 23.1 20 Sudoeste 29 Sudoeste 0 -- -- 36
2017-09-28 19:00:00 25.1 17 Sudoeste 24 Sudoeste 0 -- -- 34
2017-09-28 18:00:00 26.4 15 Sudoeste 27 Sudoeste 0 -- -- 35
2017-09-28 17:00:00 27.5 9 Sur 21 Sur 0 -- -- 30
2017-09-28 16:00:00 25.9 9 Sur 23 Sur 0 -- -- 35
2017-09-28 15:00:00 26.2 10 Sudeste 22 Sur 0 -- -- 32
2017-09-28 14:00:00 25.7 6 Sudoeste 19 Sudoeste 0 -- -- 36
2017-09-28 13:00:00 24.5 2 Sudoeste 9 Sudoeste 0 -- -- 45
2017-09-28 12:00:00 22.8 3 Sur 6 Nordeste 0 -- -- 52
2017-09-28 11:00:00 21.6 3 Nordeste 7 Este 0 -- -- 57
2017-09-28 10:00:00 19.7 5 Sudoeste 9 Norte 0 -- -- 67
2017-09-28 09:00:00 18.5 6 Norte 9 Norte 0 -- -- 71
2017-09-28 08:00:00 18.5 3 Este 9 Sur 0 -- -- 74
2017-09-28 07:00:00 18.6 6 Sudeste 9 Sudeste 0 -- -- 81
2017-09-28 06:00:00 18 3 Este 12 Sur 0 -- -- 79
2017-09-28 05:00:00 18.3 4 Sudeste 10 Sur 0 -- -- 76
2017-09-28 04:00:00 18.7 7 Sur 9 Sudoeste 0 -- -- 66
2017-09-28 03:00:00 19.8 0 Calma 9 Sur 0 -- -- 63
2017-09-28 02:00:00 19.9 4 Sudeste 9 Nordeste 0 -- -- 65
2017-09-28 01:00:00 19.3 4 Este 12 Este 0 -- -- 65
2017-09-28 00:00:00 19.4 7 Sur 16 Sur 0 -- -- 67
2017-09-27 23:00:00 20.6 10 Sur 22 Sur 0 -- -- 63
2017-09-27 22:00:00 21.4 16 Sur 24 Sur 0 -- -- 59
2017-09-27 21:00:00 21.7 15 Sur 24 Sur 0 -- -- 59
2017-09-27 20:00:00 22.7 15 Sudoeste 21 Sudoeste 0 -- -- 55
2017-09-27 19:00:00 24.5 9 Sudoeste 15 Sudoeste 0 -- -- 47
2017-09-27 18:00:00 25.2 7 Sudeste 19 Sur 0 -- -- 39
2017-09-27 17:00:00 24.6 8 Sudoeste 15 Sur 0 -- -- 43
2017-09-27 16:00:00 23.8 2 Sudeste 8 Noroeste 0 -- -- 50
2017-09-27 15:00:00 23.5 4 Nordeste 21 Nordeste 0 -- -- 53
2017-09-27 14:00:00 24.1 10 Sudeste 18 Sudeste 0 -- -- 47
2017-09-27 13:00:00 23.8 5 Nordeste 14 Oeste 0 -- -- 49
2017-09-27 12:00:00 21 2 Noroeste 9 Nordeste 0 -- -- 55
2017-09-27 11:00:00 19.7 8 Nordeste 13 Nordeste 0 -- -- 60
2017-09-27 10:00:00 18.3 10 Este 13 Nordeste 0 -- -- 63
2017-09-27 09:00:00 17.2 8 Este 16 Sudeste 0 -- -- 65
2017-09-27 08:00:00 18.4 13 Sudeste 16 Sudeste 0 -- -- 68
2017-09-27 07:00:00 17 9 Este 15 Sudeste 0 -- -- 66
2017-09-27 06:00:00 17.5 4 Sudeste 8 Sudeste 0 -- -- 67
2017-09-27 05:00:00 17 6 Este 9 Sudeste 0 -- -- 63
2017-09-27 04:00:00 17.5 5 Este 10 Nordeste 0 -- -- 61
2017-09-27 03:00:00 17.8 3 Nordeste 6 Sudeste 0 -- -- 71
2017-09-27 02:00:00 18.7 6 Sudeste 11 Este 0 -- -- 75
2017-09-27 01:00:00 18.9 2 Oeste 9 Sur 0 -- -- 70
2017-09-27 00:00:00 19.7 4 Sur 13 Sudoeste 0 -- -- 62
2017-09-26 23:00:00 20.3 10 Sur 19 Sur 0 -- -- 58
2017-09-26 22:00:00 21.5 16 Sur 22 Sur 0 -- -- 52
2017-09-26 21:00:00 23.4 14 Sudoeste 22 Sur 0 -- -- 44
2017-09-26 20:00:00 26.7 6 Noroeste 19 Noroeste 0 -- -- 12
2017-09-26 19:00:00 29.1 12 Noroeste 23 Noroeste 0 -- -- 10
2017-09-26 18:00:00 29.6 14 Oeste 23 Noroeste 0 -- -- 11
2017-09-26 17:00:00 29.6 15 Noroeste 24 Noroeste 0 -- -- 15
2017-09-26 16:00:00 29.2 10 Oeste 24 Sudoeste 0 -- -- 11
2017-09-26 15:00:00 28.7 12 Sudoeste 20 Oeste 0 -- -- 11
2017-09-26 14:00:00 27.4 5 Norte 13 Noroeste 0 -- -- 16
2017-09-26 13:00:00 26.4 4 Noroeste 10 Noroeste 0 -- -- 21
2017-09-26 12:00:00 24 3 Noroeste 8 Noroeste 0 -- -- 31
2017-09-26 11:00:00 21.1 5 Nordeste 8 Nordeste 0 -- -- 41
2017-09-26 10:00:00 17.3 5 Nordeste 9 Nordeste 0 -- -- 52
2017-09-26 09:00:00 15.7 5 Este 12 Nordeste 0 -- -- 56
2017-09-26 08:00:00 15.8 10 Nordeste 11 Nordeste 0 -- -- 57
2017-09-26 07:00:00 17.2 5 Nordeste 9 Este 0 -- -- 48
2017-09-26 06:00:00 18.1 6 Este 9 Este 0 -- -- 45
2017-09-26 05:00:00 18.6 4 Nordeste 7 Nordeste 0 -- -- 44
2017-09-26 04:00:00 19 6 Nordeste 9 Nordeste 0 -- -- 43
2017-09-26 03:00:00 19.6 5 Este 9 Este 0 -- -- 39
2017-09-26 02:00:00 20.2 6 Este 8 Este 0 -- -- 37
2017-09-26 01:00:00 21.8 4 Este 13 Norte 0 -- -- 32
2017-09-26 00:00:00 22.8 6 Oeste 12 Oeste 0 -- -- 32
2017-09-25 23:00:00 23.7 5 Sudoeste 16 Oeste 0 -- -- 27
2017-09-25 22:00:00 24.3 13 Sudoeste 16 Sudoeste 0 -- -- 25
2017-09-25 21:00:00 25.1 12 Sudoeste 16 Oeste 0 -- -- 25
2017-09-25 20:00:00 28.1 9 Oeste 22 Oeste 0 -- -- 21
2017-09-25 19:00:00 29.5 12 Oeste 23 Noroeste 0 -- -- 19
2017-09-25 18:00:00 30 14 Noroeste 28 Oeste 0 -- -- 17
2017-09-25 17:00:00 30.1 13 Noroeste 26 Oeste 0 -- -- 19
2017-09-25 16:00:00 29.7 15 Noroeste 26 Oeste 0 -- -- 20
2017-09-25 15:00:00 29.2 9 Oeste 18 Oeste 0 -- -- 27
2017-09-25 14:00:00 28 8 Noroeste 18 Oeste 0 -- -- 30
2017-09-25 13:00:00 26.7 2 Oeste 10 Oeste 0 -- -- 35
2017-09-25 12:00:00 24.3 4 Oeste 9 Nordeste 0 -- -- 42
2017-09-25 11:00:00 21.5 6 Nordeste 15 Nordeste 0 -- -- 45
2017-09-25 10:00:00 18.1 11 Nordeste 15 Nordeste 0 -- -- 52
2017-09-25 09:00:00 16.3 6 Nordeste 10 Nordeste 0 -- -- 62
2017-09-25 08:00:00 16.9 5 Este 8 Este 0 -- -- 60
2017-09-25 07:00:00 16.7 4 Este 10 Este 0 -- -- 60
2017-09-25 06:00:00 17.3 8 Nordeste 10 Nordeste 0 -- -- 57
2017-09-25 05:00:00 17.8 4 Este 16 Sur 0 -- -- 61
2017-09-25 04:00:00 17.9 12 Sur 16 Sur 0 -- -- 64
2017-09-25 03:00:00 18.9 4 Sudeste 8 Sudeste 0 -- -- 59
2017-09-25 02:00:00 18.8 5 Sur 8 Sur 0 -- -- 59
2017-09-25 01:00:00 19.7 3 Sudoeste 17 Sur 0 -- -- 56
2017-09-25 00:00:00 20.1 13 Sur 19 Sur 0 -- -- 55
2017-09-24 23:00:00 20.9 13 Sur 18 Sur 0 -- -- 53
2017-09-24 22:00:00 22.1 10 Sur 27 Sudoeste 0 -- -- 50
2017-09-24 21:00:00 23.1 20 Sur 27 Sudoeste 0 -- -- 48
2017-09-24 20:00:00 25.7 17 Sudoeste 28 Sudoeste 0 -- -- 39
2017-09-24 19:00:00 27.9 17 Sudoeste 30 Sudoeste 0 -- -- 34
2017-09-24 18:00:00 29.1 16 Sudoeste 25 Sudoeste 0 -- -- 32
2017-09-24 17:00:00 29.3 13 Sudoeste 26 Sur 0 -- -- 31
2017-09-24 16:00:00 29.3 7 Sudoeste 26 Sur 0 -- -- 26
2017-09-24 15:00:00 28.4 5 Noroeste 19 Sur 0 -- -- 29
2017-09-24 14:00:00 27.3 5 Oeste 15 Sudoeste 0 -- -- 31
2017-09-24 13:00:00 25.8 3 Sur 10 Nordeste 0 -- -- 36
2017-09-24 12:00:00 23.9 4 Sudoeste 9 Sudoeste 0 -- -- 44
2017-09-24 11:00:00 21.4 4 Oeste 6 Oeste 0 -- -- 53
2017-09-24 10:00:00 18.6 4 Nordeste 9 Nordeste 0 -- -- 63
2017-09-24 09:00:00 16.6 2 Sudeste 8 Sudeste 0 -- -- 69
2017-09-24 08:00:00 16.6 4 Este 6 Nordeste 0 -- -- 67
2017-09-24 07:00:00 16.8 2 Este 5 Sur 0 -- -- 67
2017-09-24 06:00:00 17.4 0 Calma 4 Sur 0 -- -- 65
2017-09-24 05:00:00 17.5 0 Calma 10 Sudeste 0 -- -- 65
2017-09-24 04:00:00 17.4 9 Sur 12 Sur 0 -- -- 68
2017-09-24 03:00:00 17.6 3 Sudoeste 10 Sur 0 -- -- 66
2017-09-24 02:00:00 18 9 Sur 16 Sur 0 -- -- 62
2017-09-24 01:00:00 18.8 13 Sur 22 Sur 0 -- -- 60
2017-09-24 00:00:00 19.3 15 Sur 22 Sur 0 -- -- 56
2017-09-23 23:00:00 19.9 16 Sur 21 Sur 0 -- -- 52
2017-09-23 22:00:00 21 16 Sur 24 Sur 0 -- -- 49
2017-09-23 21:00:00 22.6 17 Sur 25 Sur 0 -- -- 46
2017-09-23 20:00:00 25.2 15 Sudoeste 23 Sudoeste 0 -- -- 38
2017-09-23 19:00:00 26.9 16 Sur 30 Sudoeste 0 -- -- 34
2017-09-23 18:00:00 27.4 20 Sur 32 Sudoeste 0 -- -- 35
2017-09-23 17:00:00 27.3 22 Sudoeste 34 Sudoeste 0 -- -- 35
2017-09-23 16:00:00 27.5 20 Sudoeste 32 Sudoeste 0 -- -- 34
2017-09-23 15:00:00 28 9 Sudoeste 24 Sur 0 -- -- 31
2017-09-23 14:00:00 26.9 10 Sur 23 Sudeste 0 -- -- 34
2017-09-23 13:00:00 25.5 13 Sur 21 Sur 0 -- -- 36
2017-09-23 12:00:00 23.9 8 Sudeste 23 Sudeste 0 -- -- 45
2017-09-23 11:00:00 22.1 13 Sudeste 21 Sudeste 0 -- -- 52
2017-09-23 10:00:00 19.1 8 Nordeste 13 Sudeste 0 -- -- 66
2017-09-23 09:00:00 18.3 11 Sudeste 16 Sudeste 0 -- -- 67
2017-09-23 08:00:00 18 8 Sudeste 16 Sudeste 0 -- -- 69
2017-09-23 07:00:00 18.3 9 Este 12 Este 0 -- -- 68
2017-09-23 06:00:00 18.7 6 Sudeste 11 Sudeste 0 -- -- 67
2017-09-23 05:00:00 19 3 Este 12 Sudeste 0 -- -- 66
2017-09-23 04:00:00 19.2 8 Sudeste 18 Sur 0 -- -- 68
2017-09-23 03:00:00 19.6 11 Sudeste 26 Sudeste 0 -- -- 68
2017-09-23 02:00:00 19.7 13 Sur 23 Sur 0 -- -- 65
2017-09-23 01:00:00 19.9 15 Sur 31 Sur 0 -- -- 61
2017-09-23 00:00:00 20.1 23 Sur 33 Sur 0 -- -- 59